createdAt,value
2023-02-17T00:01:26.759Z,99.58
2023-02-17T00:03:54.069Z,97.13
2023-02-17T00:06:23.557Z,96.07
2023-02-17T00:08:50.435Z,95.62
2023-02-17T00:11:17.660Z,96.05
2023-02-17T00:13:44.714Z,97.57
2023-02-17T00:16:22.866Z,99.75
2023-02-17T00:18:55.064Z,98.81
2023-02-17T00:21:23.580Z,98.87
2023-02-17T00:23:50.603Z,98.96
2023-02-17T00:26:18.481Z,98.36
2023-02-17T00:28:45.998Z,99.56
2023-02-17T00:31:20.562Z,100.00
2023-02-17T00:33:47.787Z,99.97
2023-02-17T00:36:17.926Z,98.26
2023-02-17T00:38:45.073Z,97.02
2023-02-17T00:41:11.672Z,96.90
2023-02-17T00:43:38.208Z,96.90
2023-02-17T00:46:05.320Z,98.26
2023-02-17T00:48:32.369Z,100.00
2023-02-17T00:50:59.146Z,100.00
2023-02-17T00:53:25.800Z,100.00
2023-02-17T00:55:52.537Z,100.00
2023-02-17T00:58:19.292Z,100.00
2023-02-17T01:00:46.266Z,100.00
2023-02-17T01:03:13.088Z,100.00
2023-02-17T01:05:45.481Z,100.00
2023-02-17T01:08:14.733Z,100.00
2023-02-17T01:10:43.262Z,100.00
2023-02-17T01:13:11.046Z,100.00
2023-02-17T01:15:50.922Z,100.00
2023-02-17T01:18:19.396Z,99.98
2023-02-17T01:20:46.472Z,99.91
2023-02-17T01:23:13.987Z,99.76
2023-02-17T01:25:43.840Z,99.54
2023-02-17T01:28:21.317Z,99.85
2023-02-17T01:30:49.110Z,99.72
2023-02-17T01:33:15.735Z,99.31
2023-02-17T01:35:42.350Z,99.08
2023-02-17T01:38:08.945Z,99.87
2023-02-17T01:40:35.753Z,99.96
2023-02-17T01:43:03.824Z,99.98
2023-02-17T01:45:38.257Z,99.77
2023-02-17T01:48:14.545Z,99.43
2023-02-17T01:50:47.035Z,99.64
2023-02-17T01:53:17.252Z,99.67
2023-02-17T01:55:45.028Z,99.98
2023-02-17T01:58:16.272Z,100.00
2023-02-17T02:00:42.973Z,100.00
2023-02-17T02:03:12.956Z,99.87
2023-02-17T02:05:41.647Z,99.83
2023-02-17T02:08:10.881Z,99.94
2023-02-17T02:10:38.050Z,99.95
2023-02-17T02:13:05.319Z,100.00
2023-02-17T02:15:40.498Z,100.00
2023-02-17T02:18:29.667Z,100.00
2023-02-17T02:21:08.634Z,100.00
2023-02-17T02:23:50.216Z,100.00
2023-02-17T02:26:35.030Z,100.00
2023-02-17T02:29:52.818Z,100.00
2023-02-17T02:32:54.236Z,100.00
2023-02-17T02:35:24.972Z,100.00
2023-02-17T02:38:06.981Z,100.00
2023-02-17T02:40:37.949Z,100.00
2023-02-17T02:43:05.787Z,100.00
2023-02-17T02:45:32.798Z,100.00
2023-02-17T02:47:59.352Z,100.00
2023-02-17T02:50:36.222Z,100.00
2023-02-17T02:53:12.153Z,100.00
2023-02-17T02:56:17.506Z,100.00
2023-02-17T02:58:47.075Z,100.00
2023-02-17T03:01:27.208Z,100.00
2023-02-17T03:04:19.636Z,100.00
2023-02-17T03:06:52.937Z,100.00
2023-02-17T03:09:24.189Z,100.00
2023-02-17T03:11:52.148Z,100.00
2023-02-17T03:14:21.647Z,100.00
2023-02-17T03:16:49.750Z,100.00
2023-02-17T03:19:19.083Z,100.00
2023-02-17T03:21:53.532Z,100.00
2023-02-17T03:24:20.323Z,100.00
2023-02-17T03:26:47.183Z,100.00
2023-02-17T03:29:14.023Z,100.00
2023-02-17T03:31:41.337Z,100.00
2023-02-17T03:34:08.705Z,100.00
2023-02-17T03:36:35.224Z,100.00
2023-02-17T03:39:01.842Z,100.00
2023-02-17T03:41:28.583Z,100.00
2023-02-17T03:43:55.217Z,100.00
2023-02-17T03:46:22.482Z,100.00
2023-02-17T03:48:49.174Z,100.00
2023-02-17T03:51:25.506Z,100.00
2023-02-17T03:53:52.758Z,100.00
2023-02-17T03:56:19.853Z,100.00
2023-02-17T03:58:46.449Z,100.00
2023-02-17T04:01:14.052Z,100.00
2023-02-17T04:03:41.158Z,100.00
2023-02-17T04:06:09.144Z,100.00
2023-02-17T04:08:36.595Z,100.00
2023-02-17T04:11:05.320Z,100.00
2023-02-17T04:13:32.659Z,100.00
2023-02-17T04:16:00.054Z,100.00
2023-02-17T04:18:27.868Z,100.00
2023-02-17T04:20:54.636Z,100.00
2023-02-17T04:23:21.370Z,100.00
2023-02-17T04:25:48.625Z,100.00
2023-02-17T04:28:16.208Z,100.00
2023-02-17T04:30:47.615Z,100.00
2023-02-17T04:33:14.809Z,100.00
2023-02-17T04:35:41.847Z,100.00
2023-02-17T04:38:09.760Z,100.00
2023-02-17T04:40:37.200Z,100.00
2023-02-17T04:43:04.613Z,100.00
2023-02-17T04:45:31.575Z,100.00
2023-02-17T04:47:58.076Z,100.00
2023-02-17T04:50:24.602Z,100.00
2023-02-17T04:52:51.246Z,100.00
2023-02-17T04:55:18.279Z,100.00
2023-02-17T04:57:44.930Z,100.00
2023-02-17T05:00:12.404Z,100.00
2023-02-17T05:02:40.060Z,100.00
2023-02-17T05:05:07.528Z,100.00
2023-02-17T05:07:34.268Z,100.00
2023-02-17T05:10:00.711Z,100.00
2023-02-17T05:12:27.409Z,100.00
2023-02-17T05:14:53.914Z,100.00
2023-02-17T05:17:20.428Z,100.00
2023-02-17T05:19:46.936Z,100.00
2023-02-17T05:22:13.393Z,100.00
2023-02-17T05:24:40.166Z,100.00
2023-02-17T05:27:06.811Z,100.00
2023-02-17T05:29:33.453Z,100.00
2023-02-17T05:32:00.044Z,100.00
2023-02-17T05:34:26.826Z,100.00
2023-02-17T05:36:53.485Z,100.00
2023-02-17T05:39:20.305Z,100.00
2023-02-17T05:41:46.966Z,100.00
2023-02-17T05:44:13.387Z,100.00
2023-02-17T05:46:40.258Z,100.00
2023-02-17T05:49:07.424Z,100.00
2023-02-17T05:51:33.958Z,100.00
2023-02-17T05:54:00.673Z,100.00
2023-02-17T05:56:27.460Z,100.00
2023-02-17T05:58:54.305Z,100.00
2023-02-17T06:01:21.437Z,100.00
2023-02-17T06:03:48.307Z,100.00
2023-02-17T06:06:15.262Z,100.00
2023-02-17T06:08:42.026Z,100.00
2023-02-17T06:11:08.555Z,100.00
2023-02-17T06:13:35.495Z,100.00
2023-02-17T06:16:02.582Z,100.00
2023-02-17T06:18:29.084Z,100.00
2023-02-17T06:20:57.300Z,100.00
2023-02-17T06:23:25.387Z,100.00
2023-02-17T06:25:52.152Z,100.00
2023-02-17T06:28:18.856Z,100.00
2023-02-17T06:30:45.793Z,100.00
2023-02-17T06:33:12.654Z,100.00
2023-02-17T06:35:39.291Z,100.00
2023-02-17T06:38:06.115Z,100.00
2023-02-17T06:40:32.774Z,100.00
2023-02-17T06:42:59.464Z,100.00
2023-02-17T06:45:26.044Z,100.00
2023-02-17T06:47:52.668Z,100.00
2023-02-17T06:50:19.181Z,100.00
2023-02-17T06:52:45.617Z,100.00
2023-02-17T06:55:14.268Z,100.00
2023-02-17T06:57:40.694Z,100.00
2023-02-17T07:00:07.884Z,100.00
2023-02-17T07:02:37.946Z,100.00
2023-02-17T07:05:05.542Z,100.00
2023-02-17T07:07:32.046Z,100.00
2023-02-17T07:09:58.579Z,100.00
2023-02-17T07:12:25.027Z,100.00
2023-02-17T07:14:51.601Z,100.00
2023-02-17T07:17:18.443Z,100.00
2023-02-17T07:19:44.978Z,100.00
2023-02-17T07:22:11.551Z,100.00
2023-02-17T07:24:38.160Z,100.00
2023-02-17T07:27:10.354Z,100.00
2023-02-17T07:29:37.233Z,100.00
2023-02-17T07:32:03.999Z,100.00
2023-02-17T07:34:30.640Z,100.00
2023-02-17T07:36:57.114Z,100.00
2023-02-17T07:39:23.752Z,100.00
2023-02-17T07:41:50.319Z,100.00
2023-02-17T07:44:16.743Z,100.00
2023-02-17T07:46:43.276Z,100.00
2023-02-17T07:49:09.818Z,100.00
2023-02-17T07:51:36.458Z,100.00
2023-02-17T07:54:03.302Z,100.00
2023-02-17T07:56:30.302Z,100.00
2023-02-17T07:58:57.003Z,100.00
2023-02-17T08:01:25.298Z,100.00
2023-02-17T08:03:52.252Z,100.00
2023-02-17T08:06:22.156Z,100.00
2023-02-17T08:08:49.990Z,100.00
2023-02-17T08:11:17.411Z,100.00
2023-02-17T08:13:45.171Z,100.00
2023-02-17T08:16:11.697Z,100.00
2023-02-17T08:18:38.126Z,100.00
2023-02-17T08:21:05.201Z,100.00
2023-02-17T08:23:31.939Z,100.00
2023-02-17T08:25:58.818Z,100.00
2023-02-17T08:28:25.334Z,100.00
2023-02-17T08:30:52.012Z,100.00
2023-02-17T08:33:18.612Z,100.00
2023-02-17T08:35:45.775Z,100.00
2023-02-17T08:38:12.434Z,100.00
2023-02-17T08:40:39.470Z,100.00
2023-02-17T08:43:09.089Z,100.00
2023-02-17T08:45:36.194Z,100.00
2023-02-17T08:48:05.069Z,100.00
2023-02-17T08:50:33.187Z,100.00
2023-02-17T08:52:59.699Z,100.00
2023-02-17T08:55:26.281Z,100.00
2023-02-17T08:57:53.065Z,99.99
2023-02-17T09:00:19.778Z,99.31
2023-02-17T09:02:46.312Z,97.79
2023-02-17T09:05:14.651Z,97.73
2023-02-17T09:07:41.363Z,97.89
2023-02-17T09:10:10.277Z,96.98
2023-02-17T09:12:36.880Z,96.63
2023-02-17T09:15:03.720Z,95.89
2023-02-17T09:17:30.322Z,96.45
2023-02-17T09:19:56.907Z,96.17
2023-02-17T09:22:31.541Z,96.91
2023-02-17T09:24:58.927Z,96.69
2023-02-17T09:27:25.542Z,95.93
2023-02-17T09:29:52.090Z,96.42
2023-02-17T09:32:18.775Z,97.45
2023-02-17T09:34:45.588Z,97.21
2023-02-17T09:37:12.738Z,96.50
2023-02-17T09:39:39.217Z,94.08
2023-02-17T09:42:06.585Z,95.89
2023-02-17T09:44:44.869Z,96.97
2023-02-17T09:47:20.759Z,94.20
2023-02-17T09:49:54.310Z,88.84
2023-02-17T09:53:03.552Z,92.06
2023-02-17T09:55:35.175Z,90.24
2023-02-17T09:58:19.995Z,90.96
2023-02-17T10:01:01.740Z,91.14
2023-02-17T10:03:37.567Z,89.63
2023-02-17T10:06:07.112Z,90.26
2023-02-17T10:08:50.816Z,89.27
2023-02-17T10:11:36.224Z,87.73
2023-02-17T10:14:07.774Z,88.20
2023-02-17T10:16:46.338Z,86.97
2023-02-17T10:19:39.320Z,88.32
2023-02-17T10:22:08.741Z,88.52
2023-02-17T10:24:35.785Z,87.60
2023-02-17T10:27:10.851Z,87.82
2023-02-17T10:30:08.193Z,86.89
2023-02-17T10:32:45.358Z,86.48
2023-02-17T10:35:16.241Z,86.00
2023-02-17T10:37:46.281Z,86.08
2023-02-17T10:40:25.293Z,85.77
2023-02-17T10:42:58.582Z,85.30
2023-02-17T10:45:45.429Z,84.92
2023-02-17T10:48:14.934Z,85.15
2023-02-17T10:50:43.533Z,83.96
2023-02-17T10:53:19.742Z,82.29
2023-02-17T10:56:05.211Z,81.62
2023-02-17T10:58:48.962Z,84.10
2023-02-17T11:01:15.639Z,83.91
2023-02-17T11:03:42.490Z,83.05
2023-02-17T11:06:22.336Z,83.68
2023-02-17T11:08:54.632Z,84.26
2023-02-17T11:11:24.313Z,83.21
2023-02-17T11:14:12.405Z,82.61
2023-02-17T11:16:43.060Z,83.08
2023-02-17T11:19:26.846Z,83.77
2023-02-17T11:21:56.572Z,83.51
2023-02-17T11:24:23.623Z,83.70
2023-02-17T11:27:02.390Z,83.91
2023-02-17T11:29:30.301Z,84.17
2023-02-17T11:31:58.052Z,84.29
2023-02-17T11:34:30.934Z,83.70
2023-02-17T11:37:21.940Z,83.74
2023-02-17T11:39:53.527Z,84.49
2023-02-17T11:42:24.287Z,84.19
2023-02-17T11:44:52.298Z,84.28
2023-02-17T11:47:29.886Z,84.82
2023-02-17T11:50:41.696Z,84.93
2023-02-17T11:53:40.910Z,85.46
2023-02-17T11:56:17.013Z,86.71
2023-02-17T11:59:07.157Z,87.25
2023-02-17T12:01:58.582Z,87.89
2023-02-17T12:04:33.167Z,88.61
2023-02-17T12:07:25.084Z,89.71
2023-02-17T12:10:13.534Z,90.50
2023-02-17T12:13:03.601Z,91.35
2023-02-17T12:15:45.358Z,91.83
2023-02-17T12:18:15.003Z,93.44
2023-02-17T12:21:14.358Z,93.10
2023-02-17T12:23:56.384Z,94.04
2023-02-17T12:26:41.954Z,94.49
2023-02-17T12:29:18.379Z,95.30
2023-02-17T12:31:52.827Z,95.22
2023-02-17T12:34:31.777Z,94.81
2023-02-17T12:36:59.527Z,95.13
2023-02-17T12:39:35.298Z,95.01
2023-02-17T12:42:11.652Z,94.99
2023-02-17T12:44:44.854Z,94.93
2023-02-17T12:47:28.202Z,94.77
2023-02-17T12:50:22.672Z,94.15
2023-02-17T12:52:55.297Z,93.67
2023-02-17T12:55:29.110Z,93.44
2023-02-17T12:57:59.462Z,93.15
2023-02-17T13:00:46.733Z,92.82
2023-02-17T13:03:13.786Z,92.04
2023-02-17T13:05:46.959Z,91.53
2023-02-17T13:08:22.518Z,91.50
2023-02-17T13:11:01.025Z,91.15
2023-02-17T13:13:36.887Z,91.06
2023-02-17T13:16:07.980Z,90.18
2023-02-17T13:18:36.426Z,90.44
2023-02-17T13:21:21.093Z,90.08
2023-02-17T13:24:05.343Z,89.81
2023-02-17T13:26:34.635Z,88.73
2023-02-17T13:29:30.396Z,88.40
2023-02-17T13:32:00.664Z,88.15
2023-02-17T13:34:58.688Z,87.65
2023-02-17T13:37:34.244Z,87.14
2023-02-17T13:40:02.743Z,87.02
2023-02-17T13:42:35.201Z,86.87
2023-02-17T13:45:11.195Z,86.78
2023-02-17T13:47:39.818Z,86.25
2023-02-17T13:50:07.354Z,86.28
2023-02-17T13:52:34.076Z,85.29
2023-02-17T13:55:04.912Z,85.25
2023-02-17T13:57:36.820Z,85.22
2023-02-17T14:00:20.326Z,84.59
2023-02-17T14:02:56.842Z,84.30
2023-02-17T14:05:32.988Z,83.80
2023-02-17T14:08:06.910Z,82.80
2023-02-17T14:10:34.781Z,82.14
2023-02-17T14:13:01.486Z,82.36
2023-02-17T14:15:28.963Z,81.82
2023-02-17T14:17:55.898Z,81.97
2023-02-17T14:20:31.758Z,81.82
2023-02-17T14:23:08.502Z,81.99
2023-02-17T14:25:38.655Z,81.83
2023-02-17T14:28:18.726Z,81.38
2023-02-17T14:30:45.533Z,81.44
2023-02-17T14:33:15.252Z,80.78
2023-02-17T14:36:00.036Z,80.09
2023-02-17T14:38:32.649Z,80.18
2023-02-17T14:40:59.408Z,80.40
2023-02-17T14:43:25.866Z,80.36
2023-02-17T14:45:56.066Z,80.66
2023-02-17T14:48:23.378Z,80.89
2023-02-17T14:50:50.066Z,80.86
2023-02-17T14:53:30.771Z,80.82
2023-02-17T14:56:19.488Z,81.27
2023-02-17T14:58:46.115Z,81.23
2023-02-17T15:01:15.216Z,81.50
2023-02-17T15:03:41.772Z,81.67
2023-02-17T15:06:30.211Z,81.88
2023-02-17T15:08:58.111Z,82.25
2023-02-17T15:11:31.844Z,82.16
2023-02-17T15:13:58.579Z,82.14
2023-02-17T15:16:25.351Z,82.22
2023-02-17T15:18:52.208Z,82.41
2023-02-17T15:21:27.779Z,82.66
2023-02-17T15:23:56.194Z,82.79
2023-02-17T15:26:22.928Z,82.79
2023-02-17T15:28:49.892Z,82.69
2023-02-17T15:31:17.847Z,82.87
2023-02-17T15:33:44.920Z,83.04
2023-02-17T15:36:14.451Z,83.25
2023-02-17T15:38:42.363Z,83.30
2023-02-17T15:41:18.221Z,83.33
2023-02-17T15:43:47.281Z,83.50
2023-02-17T15:46:17.072Z,83.35
2023-02-17T15:48:45.360Z,83.06
2023-02-17T15:51:14.277Z,82.97
2023-02-17T15:53:42.020Z,82.65
2023-02-17T15:56:12.748Z,82.61
2023-02-17T15:58:39.990Z,82.42
2023-02-17T16:01:10.053Z,82.33
2023-02-17T16:03:36.592Z,81.95
2023-02-17T16:06:03.067Z,81.88
2023-02-17T16:08:29.735Z,81.82
2023-02-17T16:10:56.290Z,82.28
2023-02-17T16:13:26.603Z,82.15
2023-02-17T16:15:56.623Z,82.34
2023-02-17T16:18:24.706Z,82.31
2023-02-17T16:20:51.985Z,82.53
2023-02-17T16:23:18.510Z,82.72
2023-02-17T16:25:47.024Z,82.98
2023-02-17T16:28:20.014Z,83.06
2023-02-17T16:30:46.705Z,83.40
2023-02-17T16:33:13.581Z,83.51
2023-02-17T16:35:41.187Z,83.83
2023-02-17T16:38:23.589Z,84.06
2023-02-17T16:40:52.696Z,84.58
2023-02-17T16:43:22.727Z,84.84
2023-02-17T16:45:58.519Z,84.96
2023-02-17T16:48:28.590Z,85.60
2023-02-17T16:50:55.866Z,86.23
2023-02-17T16:53:22.893Z,86.51
2023-02-17T16:55:52.005Z,86.77
2023-02-17T16:58:21.578Z,86.93
2023-02-17T17:00:51.514Z,86.93
2023-02-17T17:03:21.684Z,87.69
2023-02-17T17:05:48.876Z,87.40
2023-02-17T17:08:16.457Z,88.01
2023-02-17T17:10:45.072Z,89.50
2023-02-17T17:13:12.454Z,89.09
2023-02-17T17:15:42.552Z,89.00
2023-02-17T17:18:15.246Z,89.34
2023-02-17T17:20:41.929Z,89.84
2023-02-17T17:23:12.208Z,90.16
2023-02-17T17:25:40.904Z,90.90
2023-02-17T17:28:08.407Z,90.51
2023-02-17T17:30:35.789Z,90.50
2023-02-17T17:33:02.732Z,91.82
2023-02-17T17:35:33.225Z,93.21
2023-02-17T17:37:59.885Z,93.59
2023-02-17T17:40:30.244Z,94.68
2023-02-17T17:42:56.844Z,96.06
2023-02-17T17:45:24.961Z,97.15
2023-02-17T17:47:52.015Z,97.97
2023-02-17T17:50:22.356Z,97.53
2023-02-17T17:52:49.402Z,97.62
2023-02-17T17:55:16.747Z,97.38
2023-02-17T17:57:44.336Z,97.74
2023-02-17T18:00:16.494Z,98.62
2023-02-17T18:02:43.858Z,98.56
2023-02-17T18:05:10.762Z,98.14
2023-02-17T18:07:38.589Z,97.68
2023-02-17T18:10:07.634Z,97.08
2023-02-17T18:12:35.050Z,96.80
2023-02-17T18:15:02.813Z,96.45
2023-02-17T18:17:31.826Z,96.09
2023-02-17T18:19:58.655Z,95.28
2023-02-17T18:22:25.608Z,94.43
2023-02-17T18:24:52.155Z,93.93
2023-02-17T18:27:18.773Z,93.60
2023-02-17T18:29:45.283Z,93.09
2023-02-17T18:32:12.111Z,92.66
2023-02-17T18:34:38.952Z,92.06
2023-02-17T18:37:07.311Z,91.51
2023-02-17T18:39:34.762Z,91.38
2023-02-17T18:42:01.510Z,91.22
2023-02-17T18:44:28.007Z,91.01
2023-02-17T18:46:54.894Z,90.51
2023-02-17T18:49:21.431Z,90.12
2023-02-17T18:51:47.988Z,90.03
2023-02-17T18:54:14.727Z,89.44
2023-02-17T18:56:41.663Z,89.31
2023-02-17T18:59:08.322Z,89.18
2023-02-17T19:01:36.914Z,89.02
2023-02-17T19:04:03.523Z,88.80
2023-02-17T19:06:34.416Z,88.69
2023-02-17T19:09:01.342Z,88.22
2023-02-17T19:11:27.868Z,88.23
2023-02-17T19:13:54.377Z,88.30
2023-02-17T19:16:24.289Z,88.18
2023-02-17T19:18:51.480Z,88.31
2023-02-17T19:21:18.954Z,88.24
2023-02-17T19:23:45.804Z,88.28
2023-02-17T19:26:13.842Z,88.03
2023-02-17T19:28:40.936Z,88.00
2023-02-17T19:31:13.851Z,88.21
2023-02-17T19:33:40.561Z,88.40
2023-02-17T19:36:27.825Z,88.27
2023-02-17T19:38:56.615Z,88.30
2023-02-17T19:41:23.743Z,88.82
2023-02-17T19:43:50.299Z,89.35
2023-02-17T19:46:19.958Z,89.64
2023-02-17T19:48:47.272Z,89.95
2023-02-17T19:51:13.927Z,90.42
2023-02-17T19:53:41.846Z,90.68
2023-02-17T19:56:12.481Z,90.94
2023-02-17T19:58:40.709Z,91.06
2023-02-17T20:01:10.736Z,91.16
2023-02-17T20:03:38.569Z,91.37
2023-02-17T20:06:10.654Z,91.33
2023-02-17T20:08:38.776Z,91.40
2023-02-17T20:11:07.955Z,91.41
2023-02-17T20:13:45.137Z,91.61
2023-02-17T20:16:15.377Z,91.53
2023-02-17T20:18:44.505Z,91.34
2023-02-17T20:21:14.763Z,91.32
2023-02-17T20:23:41.656Z,91.23
2023-02-17T20:26:11.673Z,91.20
2023-02-17T20:28:38.535Z,91.26
2023-02-17T20:31:08.568Z,91.22
2023-02-17T20:33:35.905Z,91.24
2023-02-17T20:36:03.993Z,91.13
2023-02-17T20:38:30.541Z,91.13
2023-02-17T20:40:57.326Z,90.93
2023-02-17T20:43:23.912Z,90.72
2023-02-17T20:45:50.999Z,90.41
2023-02-17T20:48:17.714Z,90.29
2023-02-17T20:50:45.220Z,90.40
2023-02-17T20:53:12.054Z,90.63
2023-02-17T20:55:39.081Z,91.01
2023-02-17T20:58:05.895Z,91.73
2023-02-17T21:00:32.539Z,92.78
2023-02-17T21:02:59.260Z,94.33
2023-02-17T21:05:26.572Z,95.41
2023-02-17T21:07:53.474Z,96.13
2023-02-17T21:10:23.773Z,98.01
2023-02-17T21:12:50.512Z,98.47
2023-02-17T21:15:17.648Z,99.93
2023-02-17T21:17:45.106Z,99.84
2023-02-17T21:20:15.231Z,100.00
2023-02-17T21:22:41.773Z,100.00
2023-02-17T21:25:09.728Z,100.00
2023-02-17T21:27:36.700Z,100.00
2023-02-17T21:30:08.704Z,100.00
2023-02-17T21:32:35.523Z,100.00
2023-02-17T21:35:02.144Z,100.00
2023-02-17T21:37:28.589Z,100.00
2023-02-17T21:39:55.029Z,100.00
2023-02-17T21:42:21.566Z,100.00
2023-02-17T21:44:48.065Z,100.00
2023-02-17T21:47:15.187Z,100.00
2023-02-17T21:49:42.022Z,100.00
2023-02-17T21:52:08.672Z,100.00
2023-02-17T21:54:35.213Z,100.00
2023-02-17T21:57:04.076Z,100.00
2023-02-17T21:59:31.269Z,100.00
2023-02-17T22:01:57.810Z,100.00
2023-02-17T22:04:24.702Z,100.00
2023-02-17T22:06:51.199Z,100.00
2023-02-17T22:09:17.968Z,100.00
2023-02-17T22:11:45.976Z,100.00
2023-02-17T22:14:18.578Z,100.00
2023-02-17T22:16:46.389Z,100.00
2023-02-17T22:19:17.081Z,100.00
2023-02-17T22:21:45.102Z,100.00
2023-02-17T22:24:12.650Z,100.00
2023-02-17T22:26:39.156Z,100.00
2023-02-17T22:29:06.853Z,100.00
2023-02-17T22:31:34.197Z,100.00
2023-02-17T22:34:03.921Z,100.00
2023-02-17T22:36:35.495Z,100.00
2023-02-17T22:39:02.865Z,100.00
2023-02-17T22:41:29.544Z,100.00
2023-02-17T22:43:56.492Z,100.00
2023-02-17T22:46:25.220Z,100.00
2023-02-17T22:48:52.698Z,100.00
2023-02-17T22:51:25.516Z,100.00
2023-02-17T22:53:52.326Z,100.00
2023-02-17T22:56:19.412Z,100.00
2023-02-17T22:58:46.092Z,100.00
2023-02-17T23:01:18.430Z,100.00
2023-02-17T23:03:45.685Z,100.00
2023-02-17T23:06:15.673Z,100.00
2023-02-17T23:08:42.471Z,100.00
2023-02-17T23:11:12.222Z,100.00
2023-02-17T23:13:39.204Z,100.00
2023-02-17T23:16:07.747Z,100.00
2023-02-17T23:18:36.080Z,100.00
2023-02-17T23:21:10.906Z,100.00
2023-02-17T23:23:37.728Z,100.00
2023-02-17T23:26:04.936Z,100.00
2023-02-17T23:28:32.053Z,100.00
2023-02-17T23:30:58.769Z,100.00
2023-02-17T23:33:25.681Z,100.00
2023-02-17T23:35:52.256Z,100.00
2023-02-17T23:38:21.532Z,100.00
2023-02-17T23:40:52.378Z,100.00
2023-02-17T23:43:19.541Z,100.00
2023-02-17T23:45:46.087Z,100.00
2023-02-17T23:48:13.028Z,100.00
2023-02-17T23:50:39.663Z,100.00
2023-02-17T23:53:07.021Z,100.00
2023-02-17T23:55:33.796Z,100.00
2023-02-17T23:58:00.674Z,100.00
